^^
Saratoga-Weather Station Historical Data
 
Daily Summary for November 30, 2020 Units:  Metric    English   Both
Daily Weekly Monthly Yearly Custom
  Current: High: Low: Average:
Temperature: 0.5 °C 1.8 °C -5.1 °C -2.3 °C
Dew Point: -1.1 °C -0.6 °C -5.8 °C -3.4 °C
Humidity: 89% 96% 83% 92%
Wind Speed: 0km/h 9.7km/h 0km/h 0.7km/h
Wind Gust: 1.6km/h 12.9km/h - -
WindCalm - - SW
Pressure: 1024.7 hPa 1027.8 hPa 1024.4 hPa -
Precipitation: 0.0 mm      
Historical Graphs
 
 
Tabular Data for November 30, 2020
Time Temperature Dew Point Pressure Wind Wind Speed Wind Gust Humidity Rainfall Rate (Hourly) solar
00:03 -2.9 °C -3.9 °C 1026.4 hPa Calm     93% 0.0 mm 0 W/m2
00:08 -3 °C -4 °C 1026.4 hPa Calm     93% 0.0 mm 0 W/m2
00:13 -3.1 °C -4.1 °C 1026.4 hPa Calm     93% 0.0 mm 0 W/m2
00:18 -3.1 °C -4.1 °C 1026.4 hPa Calm     93% 0.0 mm 0 W/m2
00:23 -3.1 °C -3.9 °C 1026.4 hPa Calm     94% 0.0 mm 0 W/m2
00:28 -3.1 °C -3.9 °C 1026.4 hPa Calm     94% 0.0 mm 0 W/m2
00:33 -3.1 °C -3.9 °C 1026.4 hPa Calm     94% 0.0 mm 0 W/m2
00:38 -3.1 °C -3.9 °C 1026.1 hPa Calm     94% 0.0 mm 0 W/m2
00:44 -3.1 °C -3.9 °C 1026.4 hPa Calm     94% 0.0 mm 0 W/m2
00:49 -3.2 °C -4 °C 1026.1 hPa Calm     94% 0.0 mm 0 W/m2
00:54 -3.2 °C -4 °C 1026.1 hPa Calm     94% 0.0 mm 0 W/m2
00:59 -3.2 °C -4 °C 1026.4 hPa Calm     94% 0.0 mm 0 W/m2
01:04 -3.3 °C -4.1 °C 1026.1 hPa Calm     94% 0.0 mm 0 W/m2
01:09 -3.3 °C -4.1 °C 1026.1 hPa Calm     94% 0.0 mm 0 W/m2
01:14 -3.3 °C -4.1 °C 1026.1 hPa Calm     94% 0.0 mm 0 W/m2
01:19 -3.3 °C -4.1 °C 1026.1 hPa Calm     94% 0.0 mm 0 W/m2
01:24 -3.3 °C -4.1 °C 1026.1 hPa Calm     94% 0.0 mm 0 W/m2
01:29 -3.3 °C -4.1 °C 1026.1 hPa Calm     94% 0.0 mm 0 W/m2
01:34 -3.3 °C -4.1 °C 1026.4 hPa Calm     94% 0.0 mm 0 W/m2
01:39 -3.3 °C -4.1 °C 1026.1 hPa Calm     94% 0.0 mm 0 W/m2
01:44 -3.3 °C -4.1 °C 1026.4 hPa Calm     94% 0.0 mm 0 W/m2
01:49 -3.3 °C -4.1 °C 1026.4 hPa Calm     94% 0.0 mm 0 W/m2
01:54 -3.3 °C -4.1 °C 1026.4 hPa Calm     94% 0.0 mm 0 W/m2
01:59 -3.3 °C -4.1 °C 1026.4 hPa Calm     94% 0.0 mm 0 W/m2
02:04 -3.4 °C -4.2 °C 1026.4 hPa Calm   1.6 km/h 94% 0.0 mm 0 W/m2
02:09 -3.4 °C -4.2 °C 1026.4 hPa Calm     94% 0.0 mm 0 W/m2
02:14 -3.5 °C -4.3 °C 1026.4 hPa SE 1.4 km/h 1.6 km/h 94% 0.0 mm 0 W/m2
02:19 -3.6 °C -4.4 °C 1026.4 hPa Calm   1.6 km/h 94% 0.0 mm 0 W/m2
02:24 -3.5 °C -4.2 °C 1026.4 hPa SE 1.4 km/h 1.6 km/h 95% 0.0 mm 0 W/m2
02:29 -3.4 °C -4.1 °C 1026.4 hPa Calm   1.6 km/h 95% 0.0 mm 0 W/m2
02:34 -3.4 °C -4.1 °C 1026.4 hPa Calm     95% 0.0 mm 0 W/m2
02:39 -3.4 °C -4.1 °C 1026.4 hPa Calm     95% 0.0 mm 0 W/m2
02:44 -3.4 °C -4.1 °C 1026.4 hPa SE 1.4 km/h 1.6 km/h 95% 0.0 mm 0 W/m2
02:49 -3.4 °C -4.1 °C 1026.4 hPa Calm     95% 0.0 mm 0 W/m2
02:54 -3.6 °C -4.4 °C 1026.4 hPa Calm     94% 0.0 mm 0 W/m2
02:59 -3.6 °C -4.4 °C 1026.4 hPa Calm     94% 0.0 mm 0 W/m2
03:04 -3.6 °C -4.4 °C 1026.1 hPa Calm     94% 0.0 mm 0 W/m2
03:09 -3.7 °C -4.5 °C 1026.1 hPa Calm     94% 0.0 mm 0 W/m2
03:14 -3.8 °C -4.6 °C 1026.4 hPa Calm     94% 0.0 mm 0 W/m2
03:19 -3.8 °C -4.6 °C 1026.1 hPa Calm     94% 0.0 mm 0 W/m2
03:24 -3.8 °C -4.6 °C 1026.1 hPa Calm     94% 0.0 mm 0 W/m2
03:29 -3.8 °C -4.5 °C 1026.4 hPa SE 1.4 km/h 1.6 km/h 95% 0.0 mm 0 W/m2
03:34 -3.8 °C -4.5 °C 1026.4 hPa Calm     95% 0.0 mm 0 W/m2
03:39 -3.9 °C -4.7 °C 1026.4 hPa Calm   3.2 km/h 94% 0.0 mm 0 W/m2
03:44 -3.9 °C -4.7 °C 1026.4 hPa Calm     94% 0.0 mm 0 W/m2
03:49 -3.9 °C -4.7 °C 1026.4 hPa Calm   3.2 km/h 94% 0.0 mm 0 W/m2
03:54 -3.9 °C -4.7 °C 1026.4 hPa Calm     94% 0.0 mm 0 W/m2
03:59 -3.8 °C -4.5 °C 1026.1 hPa Calm   3.2 km/h 95% 0.0 mm 0 W/m2
04:04 -3.8 °C -4.5 °C 1026.1 hPa SE 1.4 km/h 1.6 km/h 95% 0.0 mm 0 W/m2
04:09 -3.8 °C -4.5 °C 1026.1 hPa SE 3.2 km/h 3.2 km/h 95% 0.0 mm 0 W/m2
04:14 -3.7 °C -4.4 °C 1026.4 hPa Calm   1.6 km/h 95% 0.0 mm 0 W/m2
04:19 -3.7 °C -4.4 °C 1026.4 hPa Calm     95% 0.0 mm 0 W/m2
04:24 -3.7 °C -4.4 °C 1026.4 hPa Calm     95% 0.0 mm 0 W/m2
04:29 -3.7 °C -4.4 °C 1026.4 hPa Calm     95% 0.0 mm 0 W/m2
04:34 -3.8 °C -4.5 °C 1026.4 hPa Calm     95% 0.0 mm 0 W/m2
04:39 -3.9 °C -4.6 °C 1026.4 hPa Calm   1.6 km/h 95% 0.0 mm 0 W/m2
04:44 -3.9 °C -4.7 °C 1026.8 hPa Calm     94% 0.0 mm 0 W/m2
04:49 -4 °C -4.8 °C 1026.8 hPa Calm     94% 0.0 mm 0 W/m2
04:54 -4.1 °C -4.8 °C 1026.8 hPa Calm     95% 0.0 mm 0 W/m2
04:59 -4.2 °C -5 °C 1026.8 hPa Calm     94% 0.0 mm 0 W/m2
05:04 -4.2 °C -5 °C 1026.8 hPa Calm     94% 0.0 mm 0 W/m2
05:09 -4.2 °C -5 °C 1026.8 hPa Calm     94% 0.0 mm 0 W/m2
05:14 -4.2 °C -4.9 °C 1026.8 hPa Calm     95% 0.0 mm 0 W/m2
05:19 -4.1 °C -4.8 °C 1026.8 hPa Calm     95% 0.0 mm 0 W/m2
05:24 -4.1 °C -4.8 °C 1026.8 hPa Calm     95% 0.0 mm 0 W/m2
05:29 -4.2 °C -4.9 °C 1026.8 hPa Calm     95% 0.0 mm 0 W/m2
05:34 -4.2 °C -4.9 °C 1026.8 hPa Calm     95% 0.0 mm 0 W/m2
05:39 -4.3 °C -5.1 °C 1026.8 hPa Calm     94% 0.0 mm 0 W/m2
05:44 -4.3 °C -5.1 °C 1026.8 hPa Calm     94% 0.0 mm 0 W/m2
05:49 -4.4 °C -5.1 °C 1026.8 hPa Calm     95% 0.0 mm 0 W/m2
05:54 -4.5 °C -5.2 °C 1026.8 hPa Calm     95% 0.0 mm 0 W/m2
05:59 -4.6 °C -5.4 °C 1026.8 hPa Calm     94% 0.0 mm 0 W/m2
06:04 -4.6 °C -5.3 °C 1026.8 hPa Calm     95% 0.0 mm 0 W/m2
06:09 -4.6 °C -5.3 °C 1026.8 hPa Calm     95% 0.0 mm 0 W/m2
06:14 -4.6 °C -5.3 °C 1026.8 hPa Calm     95% 0.0 mm 0 W/m2
06:19 -4.6 °C -5.3 °C 1026.8 hPa Calm     95% 0.0 mm 0 W/m2
06:24 -4.7 °C -5.4 °C 1026.8 hPa Calm     95% 0.0 mm 0 W/m2
06:29 -4.7 °C -5.4 °C 1026.8 hPa Calm     95% 0.0 mm 0 W/m2
06:34 -4.7 °C -5.4 °C 1026.8 hPa Calm     95% 0.0 mm 0 W/m2
06:39 -4.7 °C -5.4 °C 1026.8 hPa Calm     95% 0.0 mm 0 W/m2
06:44 -4.7 °C -5.4 °C 1026.8 hPa Calm     95% 0.0 mm 0 W/m2
06:49 -4.8 °C -5.5 °C 1026.8 hPa Calm     95% 0.0 mm 0 W/m2
06:54 -4.8 °C -5.5 °C 1026.8 hPa Calm     95% 0.0 mm 0 W/m2
06:59 -4.9 °C -5.6 °C 1026.8 hPa Calm     95% 0.0 mm 0 W/m2
07:04 -4.9 °C -5.6 °C 1027.1 hPa Calm     95% 0.0 mm 0 W/m2
07:09 -4.9 °C -5.6 °C 1027.1 hPa Calm     95% 0.0 mm 0 W/m2
07:14 -4.9 °C -5.6 °C 1027.1 hPa Calm     95% 0.0 mm 0 W/m2
07:19 -4.9 °C -5.6 °C 1027.1 hPa Calm     95% 0.0 mm 0 W/m2
07:24 -5 °C -5.7 °C 1027.1 hPa Calm     95% 0.0 mm 0 W/m2
07:29 -5.1 °C -5.8 °C 1027.1 hPa Calm     95% 0.0 mm 0 W/m2
07:34 -5.1 °C -5.8 °C 1027.1 hPa Calm     95% 0.0 mm 0 W/m2
07:39 -5.1 °C -5.8 °C 1027.1 hPa Calm     95% 0.0 mm 0 W/m2
07:44 -5 °C -5.7 °C 1027.1 hPa Calm     95% 0.0 mm 0 W/m2
07:49 -5 °C -5.7 °C 1027.1 hPa Calm   1.6 km/h 95% 0.0 mm 0 W/m2
07:54 -4.9 °C -5.6 °C 1027.1 hPa Calm   1.6 km/h 95% 0.0 mm 0 W/m2
07:59 -4.9 °C -5.6 °C 1027.1 hPa Calm     95% 0.0 mm 0 W/m2
08:04 -4.9 °C -5.6 °C 1027.1 hPa Calm   1.6 km/h 95% 0.0 mm 0 W/m2
08:09 -4.9 °C -5.6 °C 1027.1 hPa Calm     95% 0.0 mm 0 W/m2
08:14 -5 °C -5.7 °C 1027.4 hPa Calm     95% 0.0 mm 5 W/m2
08:19 -5 °C -5.7 °C 1027.4 hPa Calm     95% 0.0 mm 7 W/m2
08:24 -5 °C -5.7 °C 1027.4 hPa Calm     95% 0.0 mm 9 W/m2
08:29 -5 °C -5.7 °C 1027.4 hPa Calm     95% 0.0 mm 11 W/m2
08:34 -5 °C -5.7 °C 1027.4 hPa Calm     95% 0.0 mm 12 W/m2
08:40 -4.9 °C -5.6 °C 1027.4 hPa Calm   1.6 km/h 95% 0.0 mm 14 W/m2
08:45 -4.9 °C -5.6 °C 1027.1 hPa SE 1.4 km/h 3.2 km/h 95% 0.0 mm 14 W/m2
08:50 -4.8 °C -5.5 °C 1027.4 hPa Calm   1.6 km/h 95% 0.0 mm 16 W/m2
08:55 -4.7 °C -5.4 °C 1027.4 hPa WSW 1.4 km/h 3.2 km/h 95% 0.0 mm 19 W/m2
09:00 -4.7 °C -5.4 °C 1027.4 hPa Calm   1.6 km/h 95% 0.0 mm 19 W/m2
09:05 -4.6 °C -5.3 °C 1027.4 hPa Calm     95% 0.0 mm 21 W/m2
09:10 -4.6 °C -5.3 °C 1027.4 hPa Calm     95% 0.0 mm 21 W/m2
09:15 -4.6 °C -5.3 °C 1027.4 hPa Calm     95% 0.0 mm 23 W/m2
09:20 -4.6 °C -5.3 °C 1027.8 hPa Calm     95% 0.0 mm 25 W/m2
09:25 -4.5 °C -5.2 °C 1027.4 hPa Calm     95% 0.0 mm 25 W/m2
09:30 -4.4 °C -5.1 °C 1027.4 hPa Calm     95% 0.0 mm 25 W/m2
09:35 -4.3 °C -5 °C 1027.4 hPa Calm     95% 0.0 mm 26 W/m2
09:40 -4.3 °C -5 °C 1027.8 hPa Calm     95% 0.0 mm 26 W/m2
09:45 -4.2 °C -4.7 °C 1027.8 hPa Calm     96% 0.0 mm 28 W/m2
09:50 -4.1 °C -4.6 °C 1027.8 hPa Calm     96% 0.0 mm 28 W/m2
09:55 -4 °C -4.7 °C 1027.8 hPa Calm     95% 0.0 mm 30 W/m2
10:00 -3.9 °C -4.6 °C 1027.8 hPa Calm     95% 0.0 mm 30 W/m2
10:05 -3.8 °C -4.5 °C 1027.4 hPa Calm   1.6 km/h 95% 0.0 mm 28 W/m2
10:10 -3.6 °C -4.1 °C 1027.8 hPa Calm   1.6 km/h 96% 0.0 mm 30 W/m2
10:15 -3.3 °C -3.8 °C 1027.8 hPa Calm     96% 0.0 mm 32 W/m2
10:20 -3.2 °C -3.7 °C 1027.8 hPa Calm     96% 0.0 mm 32 W/m2
10:25 -3.2 °C -3.7 °C 1027.8 hPa Calm     96% 0.0 mm 33 W/m2
10:30 -3.1 °C -3.6 °C 1027.8 hPa Calm     96% 0.0 mm 35 W/m2
10:35 -3 °C -3.5 °C 1027.8 hPa Calm     96% 0.0 mm 33 W/m2
10:40 -2.9 °C -3.6 °C 1027.8 hPa Calm     95% 0.0 mm 33 W/m2
10:45 -2.9 °C -3.4 °C 1027.8 hPa Calm     96% 0.0 mm 33 W/m2
10:50 -2.8 °C -3.3 °C 1027.8 hPa Calm     96% 0.0 mm 35 W/m2
10:55 -2.7 °C -3.4 °C 1027.8 hPa Calm     95% 0.0 mm 33 W/m2
11:00 -2.6 °C -3.3 °C 1027.4 hPa ESE 1.4 km/h 3.2 km/h 95% 0.0 mm 35 W/m2
11:05 -2.4 °C -3 °C 1027.4 hPa ESE 1.4 km/h 3.2 km/h 96% 0.0 mm 33 W/m2
11:10 -2.1 °C -2.7 °C 1027.4 hPa ENE 3.2 km/h 4.8 km/h 96% 0.0 mm 35 W/m2
11:15 -1.9 °C -2.5 °C 1027.4 hPa ENE 3.2 km/h 3.2 km/h 96% 0.0 mm 35 W/m2
11:20 -1.8 °C -2.5 °C 1027.4 hPa East 1.4 km/h 1.6 km/h 95% 0.0 mm 37 W/m2
11:25 -1.7 °C -2.4 °C 1027.4 hPa East 1.4 km/h 1.6 km/h 95% 0.0 mm 37 W/m2
11:30 -1.6 °C -2.3 °C 1027.4 hPa Calm     95% 0.0 mm 39 W/m2
11:35 -1.5 °C -2.2 °C 1027.4 hPa Calm     95% 0.0 mm 37 W/m2
11:40 -1.4 °C -2.1 °C 1027.4 hPa Calm   1.6 km/h 95% 0.0 mm 37 W/m2
11:45 -1.3 °C -2.1 °C 1027.4 hPa Calm   1.6 km/h 94% 0.0 mm 39 W/m2
11:50 -1.2 °C -2 °C 1027.1 hPa East 1.4 km/h 4.8 km/h 94% 0.0 mm 37 W/m2
11:55 -1 °C -1.7 °C 1027.1 hPa Calm   1.6 km/h 95% 0.0 mm 39 W/m2
12:00 -0.8 °C -1.6 °C 1027.1 hPa Calm   3.2 km/h 94% 0.0 mm 40 W/m2
12:05 -0.8 °C -1.6 °C 1027.1 hPa Calm   1.6 km/h 94% 0.0 mm 39 W/m2
12:10 -0.7 °C -1.5 °C 1027.1 hPa Calm   3.2 km/h 94% 0.0 mm 37 W/m2
12:15 -0.7 °C -1.7 °C 1027.1 hPa Calm     93% 0.0 mm 37 W/m2
12:20 -0.6 °C -1.6 °C 1026.8 hPa Calm     93% 0.0 mm 35 W/m2
12:25 -0.5 °C -1.5 °C 1026.8 hPa Calm   3.2 km/h 93% 0.0 mm 35 W/m2
12:30 -0.4 °C -1.4 °C 1026.8 hPa Calm   1.6 km/h 93% 0.0 mm 35 W/m2
12:35 -0.3 °C -1.3 °C 1026.8 hPa Calm     93% 0.0 mm 35 W/m2
12:40 -0.1 °C -1.1 °C 1026.8 hPa Calm   3.2 km/h 93% 0.0 mm 37 W/m2
12:45 0 °C -1 °C 1026.8 hPa Calm   1.6 km/h 93% 0.0 mm 37 W/m2
12:50 0.1 °C -0.9 °C 1026.8 hPa Calm   3.2 km/h 93% 0.0 mm 37 W/m2
12:55 0.2 °C -0.9 °C 1026.8 hPa West 1.4 km/h 4.8 km/h 92% 0.0 mm 39 W/m2
13:00 0.4 °C -0.7 °C 1026.8 hPa West 1.4 km/h 1.6 km/h 92% 0.0 mm 37 W/m2
13:05 0.5 °C -0.8 °C 1026.8 hPa West 1.4 km/h 6.4 km/h 91% 0.0 mm 40 W/m2
13:10 0.7 °C -0.8 °C 1026.8 hPa WNW 1.4 km/h 6.4 km/h 90% 0.0 mm 51 W/m2
13:15 0.9 °C -0.9 °C 1026.8 hPa SW 4.7 km/h 12.9 km/h 88% 0.0 mm 63 W/m2
13:20 1.1 °C -0.8 °C 1026.4 hPa SW 4.7 km/h 9.7 km/h 87% 0.0 mm 72 W/m2
13:25 1.2 °C -0.9 °C 1026.4 hPa West 9.7 km/h 9.7 km/h 86% 0.0 mm 56 W/m2
13:30 1.3 °C -0.9 °C 1026.1 hPa WNW 1.4 km/h 6.4 km/h 85% 0.0 mm 49 W/m2
13:35 1.4 °C -0.8 °C 1026.1 hPa West 4.7 km/h 6.4 km/h 85% 0.0 mm 53 W/m2
13:40 1.4 °C -0.8 °C 1026.1 hPa WNW 1.4 km/h 3.2 km/h 85% 0.0 mm 76 W/m2
13:45 1.5 °C -0.9 °C 1026.1 hPa Calm   11.3 km/h 84% 0.0 mm 70 W/m2
13:50 1.6 °C -0.8 °C 1026.1 hPa WSW 1.4 km/h 6.4 km/h 84% 0.0 mm 40 W/m2
13:55 1.7 °C -0.9 °C 1026.1 hPa West 4.7 km/h 11.3 km/h 83% 0.0 mm 33 W/m2
14:00 1.7 °C -0.9 °C 1026.1 hPa West 3.2 km/h 6.4 km/h 83% 0.0 mm 35 W/m2
14:05 1.6 °C -1 °C 1025.7 hPa WNW 4.7 km/h 9.7 km/h 83% 0.0 mm 35 W/m2
14:10 1.6 °C -0.8 °C 1025.7 hPa West 3.2 km/h 9.7 km/h 84% 0.0 mm 35 W/m2
14:15 1.6 °C -0.8 °C 1025.7 hPa West 1.4 km/h 4.8 km/h 84% 0.0 mm 35 W/m2
14:20 1.6 °C -0.8 °C 1025.7 hPa WNW 3.2 km/h 6.4 km/h 84% 0.0 mm 35 W/m2
14:25 1.6 °C -0.8 °C 1025.7 hPa West 3.2 km/h 6.4 km/h 84% 0.0 mm 37 W/m2
14:30 1.6 °C -0.8 °C 1025.4 hPa WNW 3.2 km/h 3.2 km/h 84% 0.0 mm 37 W/m2
14:35 1.6 °C -0.8 °C 1025.4 hPa Calm   3.2 km/h 84% 0.0 mm 33 W/m2
14:40 1.6 °C -0.8 °C 1025.4 hPa WNW 4.7 km/h 4.8 km/h 84% 0.0 mm 46 W/m2
14:45 1.6 °C -0.8 °C 1025.1 hPa Calm   3.2 km/h 84% 0.0 mm 69 W/m2
14:50 1.7 °C -0.7 °C 1025.1 hPa WNW 3.2 km/h 6.4 km/h 84% 0.0 mm 67 W/m2
14:55 1.7 °C -0.7 °C 1025.4 hPa NNW 1.4 km/h 4.8 km/h 84% 0.0 mm 58 W/m2
15:00 1.8 °C -0.8 °C 1025.1 hPa WNW 4.7 km/h 11.3 km/h 83% 0.0 mm 32 W/m2
15:05 1.8 °C -0.8 °C 1025.1 hPa West 1.4 km/h 3.2 km/h 83% 0.0 mm 28 W/m2
15:10 1.7 °C -0.9 °C 1025.1 hPa NW 6.4 km/h 11.3 km/h 83% 0.0 mm 28 W/m2
15:15 1.7 °C -0.9 °C 1025.1 hPa WNW 1.4 km/h 4.8 km/h 83% 0.0 mm 28 W/m2
15:20 1.7 °C -0.9 °C 1025.4 hPa NW 1.4 km/h 9.7 km/h 83% 0.0 mm 28 W/m2
15:25 1.7 °C -0.7 °C 1025.4 hPa WNW 1.4 km/h 3.2 km/h 84% 0.0 mm 26 W/m2
15:30 1.6 °C -0.8 °C 1025.4 hPa Calm   3.2 km/h 84% 0.0 mm 26 W/m2
15:35 1.5 °C -0.9 °C 1025.4 hPa West 4.7 km/h 6.4 km/h 84% 0.0 mm 33 W/m2
15:40 1.6 °C -0.6 °C 1025.4 hPa Calm   1.6 km/h 85% 0.0 mm 39 W/m2
15:45 1.6 °C -0.8 °C 1025.1 hPa WSW 3.2 km/h 3.2 km/h 84% 0.0 mm 28 W/m2
15:50 1.6 °C -0.8 °C 1025.1 hPa West 4.7 km/h 6.4 km/h 84% 0.0 mm 33 W/m2
15:55 1.6 °C -0.6 °C 1025.1 hPa WNW 1.4 km/h 4.8 km/h 85% 0.0 mm 23 W/m2
16:00 1.6 °C -0.6 °C 1025.1 hPa WSW 1.4 km/h 6.4 km/h 85% 0.0 mm 19 W/m2
16:05 1.5 °C -0.7 °C 1025.1 hPa Calm     85% 0.0 mm 16 W/m2
16:10 1.4 °C -0.8 °C 1025.1 hPa West 1.4 km/h 3.2 km/h 85% 0.0 mm 14 W/m2
16:15 1.3 °C -0.8 °C 1025.1 hPa Calm   1.6 km/h 86% 0.0 mm 12 W/m2
16:20 1.2 °C -0.9 °C 1024.7 hPa West 1.4 km/h 1.6 km/h 86% 0.0 mm 11 W/m2
16:25 1.1 °C -1 °C 1025.1 hPa Calm     86% 0.0 mm 9 W/m2
16:30 0.9 °C -1.2 °C 1024.7 hPa NNW 1.4 km/h 3.2 km/h 86% 0.0 mm 7 W/m2
16:35 0.8 °C -1.1 °C 1025.1 hPa ENE 3.2 km/h 4.8 km/h 87% 0.0 mm 5 W/m2
16:40 0.8 °C -1 °C 1024.7 hPa ENE 3.2 km/h 3.2 km/h 88% 0.0 mm 0 W/m2
16:45 0.7 °C -1.1 °C 1024.7 hPa ENE 1.4 km/h 4.8 km/h 88% 0.0 mm 0 W/m2
16:50 0.8 °C -1 °C 1024.7 hPa Calm   1.6 km/h 88% 0.0 mm 0 W/m2
16:55 0.7 °C -1.1 °C 1025.1 hPa Calm   3.2 km/h 88% 0.0 mm 0 W/m2
17:00 0.7 °C -1.1 °C 1025.1 hPa Calm   1.6 km/h 88% 0.0 mm 0 W/m2
17:05 0.6 °C -1.2 °C 1025.1 hPa Calm   3.2 km/h 88% 0.0 mm 0 W/m2
17:10 0.5 °C -1.3 °C 1024.7 hPa Calm     88% 0.0 mm 0 W/m2
17:15 0.5 °C -1.1 °C 1025.1 hPa East 1.4 km/h 1.6 km/h 89% 0.0 mm 0 W/m2
17:20 0.5 °C -1.1 °C 1025.1 hPa East 1.4 km/h 1.6 km/h 89% 0.0 mm 0 W/m2
17:25 0.5 °C -1.1 °C 1024.7 hPa Calm   1.6 km/h 89% 0.0 mm 0 W/m2
17:30 0.6 °C -1 °C 1024.4 hPa Calm   3.2 km/h 89% 0.0 mm 0 W/m2
17:35 0.5 °C -1.1 °C 1024.7 hPa East 1.4 km/h 3.2 km/h 89% 0.0 mm 0 W/m2
17:40 0.5 °C -1.1 °C 1024.7 hPa Calm   1.6 km/h 89% 0.0 mm 0 W/m2
Juneau County Weather
Compliments of Weather Underground - 4 mb